Time;durP1;ratioP1;P1;durP2;ratioP2;P2;SDS_P1;SDS_P2;PMS_P1;PMS_P2;Temp;Humidity;BMP_temperature;BMP_pressure;BME280_temperature;BME280_humidity;BME280_pressure;Samples;Min_cycle;Max_cycle;Signal;HPM_P1;HPM_P2
2021/08/16 00:00:14;;;;;;;;;;;;;;;18.72;86.58;97609.67;1731050;82;20276;-75
2021/08/16 00:02:42;;;;;;;;;;;;;;;18.74;86.59;97600.52;1731016;82;20152;-75
2021/08/16 00:05:09;;;;;;;;;;;;;;;18.71;86.68;97598.45;1731058;83;20097;-75
2021/08/16 00:07:34;;;;;;;;;;;;;;;18.67;86.90;97598.11;1731342;82;20161;-80
2021/08/16 00:10:00;;;;;;;;;;;;;;;18.66;86.97;97598.69;1731302;82;21143;-75
2021/08/16 00:12:26;;;;;;;;;;;;;;;18.63;88.35;97590.30;1730732;82;20214;-79
2021/08/16 00:14:52;;;;;;;;;;;;;;;18.56;88.71;97584.02;1731032;82;20249;-79
2021/08/16 00:17:17;;;;;;;;;;;;;;;18.53;87.85;97582.75;1737400;82;20134;-75
2021/08/16 00:19:43;;;;;;;;;;;;;;;18.55;87.00;97585.97;1744210;82;20146;-79
2021/08/16 00:22:09;;;;;;;;;;;;;;;18.54;86.91;97577.52;1743916;82;21844;-75
2021/08/16 00:24:35;;;;;;;;;;;;;;;18.48;87.50;97578.08;1743860;82;20223;-80
2021/08/16 00:27:01;;;;;;;;;;;;;;;18.49;86.91;97586.53;1744015;82;20713;-75
2021/08/16 00:29:26;;;;;;;;;;;;;;;18.54;86.64;97587.12;1738833;82;20756;-75
2021/08/16 00:31:52;;;;;;;;;;;;;;;18.50;87.18;97593.61;1718615;82;20174;-75
2021/08/16 00:34:18;;;;;;;;;;;;;;;18.41;88.66;97591.55;1738750;81;20882;-75
2021/08/16 00:36:43;;;;;;;;;;;;;;;18.37;88.69;97587.88;1739060;82;20260;-79
2021/08/16 00:39:09;;;;;;;;;;;;;;;18.33;88.37;97586.39;1738741;82;20193;-75
2021/08/16 00:41:36;;;;;;;;;;;;;;;18.35;88.54;97590.16;1739170;81;20201;-79
2021/08/16 00:44:01;;;;;;;;;;;;;;;18.35;89.36;97585.47;1738790;82;20167;-79
2021/08/16 00:46:28;;;;;;;;;;;;;;;18.36;88.21;97583.53;1718152;82;21143;-80
2021/08/16 00:48:54;;;;;;;;;;;;;;;18.34;89.78;97571.53;1738645;82;20136;-80
2021/08/16 00:51:20;;;;;;;;;;;;;;;18.35;89.23;97569.02;1739207;81;20229;-79
2021/08/16 00:53:46;;;;;;;;;;;;;;;18.31;89.14;97564.00;1738883;82;20167;-76
2021/08/16 00:56:12;;;;;;;;;;;;;;;18.30;87.70;97561.83;1739153;81;20418;-80
2021/08/16 00:58:39;;;;;;;;;;;;;;;18.32;87.76;97556.00;1738797;82;21916;-75
2021/08/16 01:01:05;;;;;;;;;;;;;;;18.34;87.79;97550.97;1738989;82;20151;-79
2021/08/16 01:03:30;;;;;;;;;;;;;;;18.27;89.56;97543.86;1738856;81;20206;-75
2021/08/16 01:05:57;;;;;;;;;;;;;;;18.23;88.17;97543.76;1739005;82;20134;-76
2021/08/16 01:08:23;;;;;;;;;;;;;;;18.17;88.21;97550.59;1738864;81;20099;-75
2021/08/16 01:10:48;;;;;;;;;;;;;;;18.16;88.46;97558.59;1739182;82;21076;-80
2021/08/16 01:13:15;;;;;;;;;;;;;;;18.21;90.52;97552.11;1738868;82;20169;-75
2021/08/16 01:15:57;;;;;;;;;;;;;;;18.26;89.43;97549.92;1739188;82;20158;-75
2021/08/16 01:18:23;;;;;;;;;;;;;;;18.30;90.10;97547.31;1730701;81;20140;-75
2021/08/16 01:20:49;;;;;;;;;;;;;;;18.32;88.98;97540.34;1731271;82;20144;-75
2021/08/16 01:23:15;;;;;;;;;;;;;;;18.27;90.12;97535.06;1731497;82;21061;-76
2021/08/16 01:25:44;;;;;;;;;;;;;;;18.24;89.87;97523.99;1730749;82;20166;-75
2021/08/16 01:28:10;;;;;;;;;;;;;;;18.22;89.32;97517.48;1729290;83;20160;-79
2021/08/16 01:30:36;;;;;;;;;;;;;;;18.24;88.31;97524.79;1731255;82;20143;-79
2021/08/16 01:33:02;;;;;;;;;;;;;;;18.28;88.33;97529.01;1731477;82;20174;-80
2021/08/16 01:35:27;;;;;;;;;;;;;;;18.32;89.83;97525.83;1731421;82;21316;-75
2021/08/16 01:37:53;;;;;;;;;;;;;;;18.34;89.01;97516.68;1731415;82;20182;-79
2021/08/16 01:40:19;;;;;;;;;;;;;;;18.28;88.35;97522.95;1730864;82;20193;-79
2021/08/16 01:42:45;;;;;;;;;;;;;;;18.23;89.62;97530.05;1731135;82;20213;-79
2021/08/16 01:45:11;;;;;;;;;;;;;;;18.23;90.07;97530.05;1731223;82;20194;-75
2021/08/16 01:47:36;;;;;;;;;;;;;;;18.28;89.60;97535.87;1730907;82;21264;-75
2021/08/16 01:50:03;;;;;;;;;;;;;;;18.30;88.78;97537.72;1731144;82;20186;-79
2021/08/16 01:52:29;;;;;;;;;;;;;;;18.32;88.77;97535.42;1731633;82;20155;-79
2021/08/16 01:54:55;;;;;;;;;;;;;;;18.38;88.20;97545.04;1731268;82;20662;-79
2021/08/16 01:57:20;;;;;;;;;;;;;;;18.45;87.82;97558.96;1731000;82;20222;-76
2021/08/16 01:59:46;;;;;;;;;;;;;;;18.51;87.56;97567.78;1710514;83;21068;-79
2021/08/16 02:02:12;;;;;;;;;;;;;;;18.51;87.45;97571.32;1731040;82;20256;-76
2021/08/16 02:04:37;;;;;;;;;;;;;;;18.39;88.68;97568.58;1730887;83;20225;-75
2021/08/16 02:07:03;;;;;;;;;;;;;;;18.35;88.41;97557.25;1731188;82;20150;-78
2021/08/16 02:09:29;;;;;;;;;;;;;;;18.31;87.29;97553.83;1710638;82;20755;-75
2021/08/16 02:11:55;;;;;;;;;;;;;;;18.27;87.98;97543.86;1730986;82;21923;-75
2021/08/16 02:14:21;;;;;;;;;;;;;;;18.24;87.76;97544.56;1730724;83;20805;-75
2021/08/16 02:16:46;;;;;;;;;;;;;;;18.20;89.56;97536.77;1730528;82;20270;-79
2021/08/16 02:19:12;;;;;;;;;;;;;;;18.20;87.60;97536.23;1730661;83;20745;-79
2021/08/16 02:21:38;;;;;;;;;;;;;;;18.14;87.66;97526.61;1730966;82;20214;-75
2021/08/16 02:24:04;;;;;;;;;;;;;;;18.12;87.40;97529.48;1730817;83;21025;-79
2021/08/16 02:26:30;;;;;;;;;;;;;;;18.15;87.37;97529.58;1730680;82;20201;-79
2021/08/16 02:28:55;;;;;;;;;;;;;;;18.03;87.65;97528.17;1730799;83;20269;-79
2021/08/16 02:31:23;;;;;;;;;;;;;;;17.99;87.49;97525.89;1731811;82;20769;-79
2021/08/16 02:33:50;;;;;;;;;;;;;;;17.94;87.35;97523.36;1730725;82;20128;-80
2021/08/16 02:36:15;;;;;;;;;;;;;;;17.92;87.16;97519.59;1731174;83;20950;-79
2021/08/16 02:38:41;;;;;;;;;;;;;;;17.87;87.15;97518.45;1730847;83;20182;-80
2021/08/16 02:41:07;;;;;;;;;;;;;;;17.80;89.64;97507.25;1730883;82;20249;-79
2021/08/16 02:43:33;;;;;;;;;;;;;;;17.75;88.20;97508.25;1730818;82;20151;-75
2021/08/16 02:45:58;;;;;;;;;;;;;;;17.72;88.10;97512.25;1731081;83;20151;-75
2021/08/16 02:48:24;;;;;;;;;;;;;;;17.77;88.26;97520.23;1730974;83;21836;-75
2021/08/16 02:50:50;;;;;;;;;;;;;;;17.69;89.13;97512.91;1731361;82;20691;-79
2021/08/16 02:53:15;;;;;;;;;;;;;;;17.66;90.20;97508.87;1731157;82;20745;-75
2021/08/16 02:55:41;;;;;;;;;;;;;;;17.62;90.16;97503.86;1731147;83;20198;-75
2021/08/16 02:58:07;;;;;;;;;;;;;;;17.62;88.73;97504.43;1730904;83;20186;-75
2021/08/16 03:00:33;;;;;;;;;;;;;;;17.59;89.87;97490.81;1730849;82;21085;-79
2021/08/16 03:02:58;;;;;;;;;;;;;;;17.59;91.08;97484.54;1731000;82;20234;-75
2021/08/16 03:05:24;;;;;;;;;;;;;;;17.64;89.60;97481.03;1731195;82;20158;-79
2021/08/16 03:07:50;;;;;;;;;;;;;;;17.64;90.30;97480.23;1730869;82;20580;-80
2021/08/16 03:10:16;;;;;;;;;;;;;;;17.61;90.15;97474.07;1730887;82;20186;-75
2021/08/16 03:12:42;;;;;;;;;;;;;;;17.65;88.63;97472.23;1730904;83;21913;-75
2021/08/16 03:15:08;;;;;;;;;;;;;;;17.64;88.59;97468.70;1730643;82;20742;-75
2021/08/16 03:17:34;;;;;;;;;;;;;;;17.67;88.56;97476.23;1734116;82;20143;-75
2021/08/16 03:20:00;;;;;;;;;;;;;;;17.66;88.95;97476.00;1744211;82;20162;-80
2021/08/16 03:22:26;;;;;;;;;;;;;;;17.60;89.00;97469.13;1744499;82;20686;-75
2021/08/16 03:24:51;;;;;;;;;;;;;;;17.56;89.60;97457.84;1743713;82;21087;-75
2021/08/16 03:27:17;;;;;;;;;;;;;;;17.52;89.28;97461.00;1744410;82;20209;-80
2021/08/16 03:29:43;;;;;;;;;;;;;;;17.47;91.93;97448.34;1744166;82;20189;-80
2021/08/16 03:32:09;;;;;;;;;;;;;;;17.47;91.69;97454.62;1739586;82;20248;-79
2021/08/16 03:34:35;;;;;;;;;;;;;;;17.43;91.63;97456.45;1738934;82;20428;-79
2021/08/16 03:37:01;;;;;;;;;;;;;;;17.43;91.60;97443.30;1739137;82;21861;-75
2021/08/16 03:39:26;;;;;;;;;;;;;;;17.45;91.64;97442.41;1738851;81;20217;-75
2021/08/16 03:41:52;;;;;;;;;;;;;;;17.47;91.85;97436.02;1739084;81;20245;-75
2021/08/16 03:44:18;;;;;;;;;;;;;;;17.53;90.76;97442.89;1738988;82;20146;-75
2021/08/16 03:46:44;;;;;;;;;;;;;;;17.52;90.73;97439.92;1739089;82;20147;-75
2021/08/16 03:49:11;;;;;;;;;;;;;;;17.53;90.58;97437.98;1738956;81;21062;-80
2021/08/16 03:51:37;;;;;;;;;;;;;;;17.58;90.66;97444.02;1739095;81;20187;-75
2021/08/16 03:54:02;;;;;;;;;;;;;;;17.58;92.21;97436.38;1738918;82;20280;-75
2021/08/16 03:56:28;;;;;;;;;;;;;;;17.63;90.86;97436.17;1739080;82;20162;-75
2021/08/16 03:58:54;;;;;;;;;;;;;;;17.61;90.50;97430.23;1738995;81;20170;-79
2021/08/16 04:01:20;;;;;;;;;;;;;;;17.58;90.35;97421.31;1739178;81;21120;-75
2021/08/16 04:03:45;;;;;;;;;;;;;;;17.56;91.12;97416.75;1738923;82;20185;-75
2021/08/16 04:06:11;;;;;;;;;;;;;;;17.55;90.96;97406.37;1739105;82;20201;-75
2021/08/16 04:08:43;;;;;;;;;;;;;;;17.54;91.14;97406.14;1738978;81;20183;-75
2021/08/16 04:11:08;;;;;;;;;;;;;;;17.60;91.13;97403.39;1738216;82;20143;-75
2021/08/16 04:13:33;;;;;;;;;;;;;;;17.74;89.89;97394.88;1738728;82;21354;-75
2021/08/16 04:15:59;;;;;;;;;;;;;;;17.78;90.11;97397.19;1739131;82;20202;-75
2021/08/16 04:18:25;;;;;;;;;;;;;;;17.78;91.43;97391.70;1741471;81;20185;-80
2021/08/16 04:20:51;;;;;;;;;;;;;;;17.84;91.28;97386.78;1744506;82;20800;-75
2021/08/16 04:23:16;;;;;;;;;;;;;;;17.89;90.77;97383.83;1744329;82;20197;-80
2021/08/16 04:25:42;;;;;;;;;;;;;;;17.93;91.45;97399.23;1744362;81;21925;-80
2021/08/16 04:28:08;;;;;;;;;;;;;;;17.97;90.72;97398.78;1739911;81;20325;-75
2021/08/16 04:30:34;;;;;;;;;;;;;;;18.10;90.36;97404.25;1739114;81;20260;-80
2021/08/16 04:33:00;;;;;;;;;;;;;;;18.24;88.52;97406.88;1739032;82;20791;-80
2021/08/16 04:35:25;;;;;;;;;;;;;;;18.32;88.45;97406.53;1738801;82;20178;-75
2021/08/16 04:37:51;;;;;;;;;;;;;;;18.41;88.55;97406.41;1738937;82;21141;-75
2021/08/16 04:40:17;;;;;;;;;;;;;;;18.53;88.45;97414.59;1738834;82;20201;-75
2021/08/16 04:42:43;;;;;;;;;;;;;;;18.61;88.08;97415.84;1738802;81;20170;-76
2021/08/16 04:45:10;;;;;;;;;;;;;;;18.65;87.62;97421.48;1738916;82;20154;-80
2021/08/16 04:47:35;;;;;;;;;;;;;;;18.67;87.74;97411.53;1739056;81;20139;-80
2021/08/16 04:50:02;;;;;;;;;;;;;;;18.74;88.03;97413.91;1738823;82;21723;-80
2021/08/16 04:52:28;;;;;;;;;;;;;;;18.74;88.02;97419.97;1738939;82;20132;-76
2021/08/16 04:54:54;;;;;;;;;;;;;;;18.79;87.68;97417.77;1738836;81;20217;-80
2021/08/16 04:57:37;;;;;;;;;;;;;;;18.90;87.32;97421.41;1738979;81;20789;-80
2021/08/16 05:00:11;;;;;;;;;;;;;;;19.01;86.96;97413.70;1738800;82;20140;-80
2021/08/16 05:02:37;;;;;;;;;;;;;;;19.09;87.09;97414.12;1737233;82;21145;-75
2021/08/16 05:05:08;;;;;;;;;;;;;;;19.23;86.80;97423.89;1717919;82;20197;-80
2021/08/16 05:07:32;;;;;;;;;;;;;;;19.31;86.25;97419.64;1738830;82;20183;-76
2021/08/16 05:09:57;;;;;;;;;;;;;;;19.28;86.36;97418.95;1718010;82;20138;-75
2021/08/16 05:12:23;;;;;;;;;;;;;;;19.25;85.98;97414.17;1739268;81;20151;-80
2021/08/16 05:14:49;;;;;;;;;;;;;;;19.19;86.19;97414.20;1738908;81;21728;-80
2021/08/16 05:17:15;;;;;;;;;;;;;;;19.16;86.24;97417.08;1738991;81;20205;-76
2021/08/16 05:19:40;;;;;;;;;;;;;;;19.15;86.47;97413.31;1712427;83;20234;-80
2021/08/16 05:22:08;;;;;;;;;;;;;;;19.24;86.12;97409.04;1731129;83;20272;-80
2021/08/16 05:24:34;;;;;;;;;;;;;;;19.36;85.73;97408.96;1730024;82;20121;-76
2021/08/16 05:27:01;;;;;;;;;;;;;;;19.43;86.10;97411.91;1731157;82;21104;-80
2021/08/16 05:29:27;;;;;;;;;;;;;;;19.58;86.04;97410.37;1730720;82;20384;-76
2021/08/16 05:31:52;;;;;;;;;;;;;;;19.73;85.64;97410.94;1730997;83;20229;-78
2021/08/16 05:34:18;;;;;;;;;;;;;;;19.88;85.18;97406.59;1730749;82;20737;-75
2021/08/16 05:36:44;;;;;;;;;;;;;;;20.06;83.77;97411.95;1730937;82;20186;-75
2021/08/16 05:39:10;;;;;;;;;;;;;;;20.19;82.87;97407.95;1730611;83;21888;-76
2021/08/16 05:41:35;;;;;;;;;;;;;;;20.27;82.22;97402.84;1730868;82;20380;-80
2021/08/16 05:44:01;;;;;;;;;;;;;;;20.37;81.97;97411.70;1730624;82;20249;-76
2021/08/16 05:46:27;;;;;;;;;;;;;;;20.50;81.71;97404.94;1731276;82;20143;-76
2021/08/16 05:48:53;;;;;;;;;;;;;;;20.64;80.38;97412.14;1731079;82;20170;-77
2021/08/16 05:51:18;;;;;;;;;;;;;;;20.70;80.06;97412.67;1730735;82;21724;-80
2021/08/16 05:53:44;;;;;;;;;;;;;;;20.73;81.00;97400.92;1730738;83;20174;-76
2021/08/16 05:56:10;;;;;;;;;;;;;;;20.90;80.45;97406.59;1731213;82;20178;-76
2021/08/16 05:58:35;;;;;;;;;;;;;;;21.03;79.22;97408.84;1730718;82;20151;-76
2021/08/16 06:01:01;;;;;;;;;;;;;;;21.20;79.66;97410.95;1730935;82;20198;-76
2021/08/16 06:03:27;;;;;;;;;;;;;;;21.31;80.17;97421.61;1730755;82;21906;-77
2021/08/16 06:05:53;;;;;;;;;;;;;;;21.40;80.09;97418.05;1730582;82;20182;-77
2021/08/16 06:08:18;;;;;;;;;;;;;;;21.52;78.95;97423.38;1730882;83;20194;-80
2021/08/16 06:10:44;;;;;;;;;;;;;;;21.66;78.71;97436.05;1730870;82;20174;-77
2021/08/16 06:13:10;;;;;;;;;;;;;;;21.77;78.42;97438.20;1730639;82;20178;-76
2021/08/16 06:15:36;;;;;;;;;;;;;;;21.87;76.24;97437.58;1730785;82;21296;-77
2021/08/16 06:18:02;;;;;;;;;;;;;;;22.09;77.89;97434.06;1732064;82;20253;-80
2021/08/16 06:20:28;;;;;;;;;;;;;;;22.30;76.71;97447.98;1732760;82;20276;-77
2021/08/16 06:22:53;;;;;;;;;;;;;;;22.51;76.87;97443.59;1739399;82;20194;-76
2021/08/16 06:25:19;;;;;;;;;;;;;;;22.73;74.46;97447.48;1738982;81;20187;-80
2021/08/16 06:27:45;;;;;;;;;;;;;;;22.94;76.00;97451.72;1739102;81;22028;-80
2021/08/16 06:30:11;;;;;;;;;;;;;;;23.11;72.94;97452.53;1738899;81;20836;-80
2021/08/16 06:32:37;;;;;;;;;;;;;;;23.25;74.21;97454.10;1739091;82;20178;-80
2021/08/16 06:35:04;;;;;;;;;;;;;;;23.50;73.03;97459.09;1738830;82;20177;-77
2021/08/16 06:37:30;;;;;;;;;;;;;;;23.70;71.09;97459.76;1739308;81;20179;-77
2021/08/16 06:39:55;;;;;;;;;;;;;;;23.84;71.25;97465.41;1738994;81;21844;-77
2021/08/16 06:42:21;;;;;;;;;;;;;;;24.06;70.39;97464.45;1739058;82;20259;-74
2021/08/16 06:44:47;;;;;;;;;;;;;;;24.22;68.85;97462.02;1738957;82;20220;-74
2021/08/16 06:47:13;;;;;;;;;;;;;;;24.45;70.74;97464.81;1739302;81;20265;-74
2021/08/16 06:49:39;;;;;;;;;;;;;;;24.92;70.04;97454.81;1738949;82;20175;-78
2021/08/16 06:52:05;;;;;;;;;;;;;;;25.31;67.34;97452.86;1739132;82;21135;-78
2021/08/16 06:54:31;;;;;;;;;;;;;;;25.59;64.63;97457.70;1738857;81;20557;-78
2021/08/16 06:57:04;;;;;;;;;;;;;;;25.78;64.52;97455.98;1739223;81;20190;-74
2021/08/16 06:59:32;;;;;;;;;;;;;;;25.90;62.87;97456.22;1738816;81;20140;-78
2021/08/16 07:01:58;;;;;;;;;;;;;;;26.06;63.92;97454.43;1739241;81;20139;-78
2021/08/16 07:04:24;;;;;;;;;;;;;;;26.19;62.91;97448.70;1738854;81;21134;-78
2021/08/16 07:06:50;;;;;;;;;;;;;;;26.26;62.57;97453.47;1739114;82;20222;-78
2021/08/16 07:09:15;;;;;;;;;;;;;;;26.31;63.02;97453.84;1739001;81;20210;-77
2021/08/16 07:11:41;;;;;;;;;;;;;;;26.56;62.97;97451.08;1739253;81;20177;-77
2021/08/16 07:14:07;;;;;;;;;;;;;;;27.10;59.61;97442.67;1738888;81;20162;-81
2021/08/16 07:16:33;;;;;;;;;;;;;;;27.70;59.53;97452.75;1739085;82;21851;-81
2021/08/16 07:18:59;;;;;;;;;;;;;;;28.21;54.81;97447.83;1738746;82;20198;-81
2021/08/16 07:21:25;;;;;;;;;;;;;;;28.33;56.60;97452.12;1741307;81;20253;-81
2021/08/16 07:23:50;;;;;;;;;;;;;;;28.75;57.05;97448.16;1740908;82;20141;-77
2021/08/16 07:26:16;;;;;;;;;;;;;;;29.15;56.49;97454.14;1739112;81;20154;-77
2021/08/16 07:28:45;;;;;;;;;;;;;;;29.46;53.91;97455.72;1739079;81;21134;-77
2021/08/16 07:31:10;;;;;;;;;;;;;;;29.75;54.15;97451.98;1738648;82;20401;-76
2021/08/16 07:33:36;;;;;;;;;;;;;;;30.47;50.48;97453.69;1738985;81;20221;-77
2021/08/16 07:36:02;;;;;;;;;;;;;;;30.69;48.16;97450.74;1738875;82;20451;-77
2021/08/16 07:38:27;;;;;;;;;;;;;;;31.13;49.52;97457.89;1739390;81;20163;-81
2021/08/16 07:40:53;;;;;;;;;;;;;;;31.35;42.86;97451.88;1738985;82;21079;-77
2021/08/16 07:43:20;;;;;;;;;;;;;;;31.02;46.29;97469.91;1738890;82;20178;-81
2021/08/16 07:45:48;;;;;;;;;;;;;;;30.86;41.09;97465.00;1738879;81;20176;-77
2021/08/16 07:48:14;;;;;;;;;;;;;;;30.35;44.04;97466.27;1739049;82;20635;-81
2021/08/16 07:50:40;;;;;;;;;;;;;;;30.28;44.00;97462.98;1738926;82;20158;-81
2021/08/16 07:53:07;;;;;;;;;;;;;;;30.11;43.12;97464.66;1739174;82;21153;-77
2021/08/16 07:55:32;;;;;;;;;;;;;;;29.96;46.42;97475.22;1738967;82;20155;-77
2021/08/16 07:57:58;;;;;;;;;;;;;;;29.93;44.21;97470.48;1739122;82;20166;-81
2021/08/16 08:00:24;;;;;;;;;;;;;;;29.70;46.22;97479.57;1738959;82;20154;-78
2021/08/16 08:02:50;;;;;;;;;;;;;;;29.72;45.68;97475.75;1739011;82;20139;-81
2021/08/16 08:05:20;;;;;;;;;;;;;;;30.05;45.61;97479.06;1738930;82;21125;-77
2021/08/16 08:07:46;;;;;;;;;;;;;;;30.28;44.64;97475.55;1739053;82;20148;-77
2021/08/16 08:10:12;;;;;;;;;;;;;;;30.15;44.10;97480.75;1739096;81;20187;-80
2021/08/16 08:12:39;;;;;;;;;;;;;;;30.49;44.92;97479.98;1739098;82;20856;-77
2021/08/16 08:15:05;;;;;;;;;;;;;;;30.82;43.46;97486.64;1739050;82;20151;-77
2021/08/16 08:17:31;;;;;;;;;;;;;;;30.79;42.55;97488.91;1738995;82;21144;-77
2021/08/16 08:19:57;;;;;;;;;;;;;;;30.85;41.23;97486.38;1738983;81;20221;-81
2021/08/16 08:22:23;;;;;;;;;;;;;;;31.09;42.03;97487.14;1738893;81;20201;-77
2021/08/16 08:24:49;;;;;;;;;;;;;;;31.01;42.66;97484.30;1738968;82;20144;-77
2021/08/16 08:27:15;;;;;;;;;;;;;;;30.98;43.02;97497.75;1735715;82;20111;-77
2021/08/16 08:29:41;;;;;;;;;;;;;;;31.25;42.22;97496.27;1730667;82;21772;-81
2021/08/16 08:32:07;;;;;;;;;;;;;;;32.18;41.35;97495.10;1730652;82;20169;-77
2021/08/16 08:34:33;;;;;;;;;;;;;;;33.28;38.42;97481.10;1730744;83;20221;-82
2021/08/16 08:36:59;;;;;;;;;;;;;;;33.55;38.57;97486.98;1731040;82;20222;-81
2021/08/16 08:39:24;;;;;;;;;;;;;;;34.18;37.61;97484.30;1730745;83;20170;-82
2021/08/16 08:41:52;;;;;;;;;;;;;;;34.54;35.32;97482.38;1731137;83;21142;-81
2021/08/16 08:44:18;;;;;;;;;;;;;;;34.98;33.65;97484.70;1709450;83;20419;-81
2021/08/16 08:46:44;;;;;;;;;;;;;;;35.24;30.39;97481.16;1731021;82;20197;-78
2021/08/16 08:49:10;;;;;;;;;;;;;;;35.23;31.27;97481.79;1730813;82;20162;-77
2021/08/16 08:51:38;;;;;;;;;;;;;;;35.34;33.36;97493.44;1730671;83;20137;-77
2021/08/16 08:54:04;;;;;;;;;;;;;;;36.00;28.65;97485.61;1730313;83;20936;-77
2021/08/16 08:56:31;;;;;;;;;;;;;;;35.95;30.33;97488.39;1730576;82;20135;-81
2021/08/16 08:58:57;;;;;;;;;;;;;;;36.37;27.08;97480.92;1730769;83;20139;-77
2021/08/16 09:01:23;;;;;;;;;;;;;;;36.02;28.28;97483.89;1730766;83;20156;-78
2021/08/16 09:03:50;;;;;;;;;;;;;;;35.84;28.20;97476.11;1730841;82;20416;-81
2021/08/16 09:06:31;;;;;;;;;;;;;;;35.98;28.84;97487.48;1730701;82;21047;-78
2021/08/16 09:08:57;;;;;;;;;;;;;;;36.14;28.34;97480.80;1730633;83;20128;-78
2021/08/16 09:11:24;;;;;;;;;;;;;;;36.09;29.02;97480.80;1730794;83;20174;-78
2021/08/16 09:13:52;;;;;;;;;;;;;;;36.68;29.23;97478.03;1730799;83;20407;-81
2021/08/16 09:16:18;;;;;;;;;;;;;;;37.11;27.44;97471.34;1730821;82;20183;-78
2021/08/16 09:18:44;;;;;;;;;;;;;;;37.42;26.38;97468.98;1730748;82;21041;-78
2021/08/16 09:21:12;;;;;;;;;;;;;;;37.70;26.61;97476.17;1730563;82;20213;-81
2021/08/16 09:23:45;;;;;;;;;;;;;;;37.91;27.59;97470.80;1730819;83;20164;-81
2021/08/16 09:26:11;;;;;;;;;;;;;;;38.10;26.52;97456.73;1710633;83;20157;-81
2021/08/16 09:28:37;;;;;;;;;;;;;;;38.20;26.76;97456.86;1731012;82;20146;-78
2021/08/16 09:31:15;;;;;;;;;;;;;;;38.17;26.73;97466.92;1730812;82;21058;-81
2021/08/16 09:33:55;;;;;;;;;;;;;;;38.20;26.23;97461.11;1730272;82;20128;-81
2021/08/16 09:36:21;;;;;;;;;;;;;;;38.40;27.86;97467.62;1730773;83;20408;-78
2021/08/16 09:38:47;;;;;;;;;;;;;;;38.51;27.67;97465.04;1730787;82;20708;-78
2021/08/16 09:41:24;;;;;;;;;;;;;;;38.56;27.93;97465.02;1730718;82;20707;-81
2021/08/16 09:44:08;;;;;;;;;;;;;;;39.10;26.74;97461.03;1730750;83;21052;-82
2021/08/16 09:46:34;;;;;;;;;;;;;;;39.39;25.70;97460.31;1730374;82;20161;-82
2021/08/16 09:49:04;;;;;;;;;;;;;;;38.95;25.95;97457.38;1710203;83;20156;-78
2021/08/16 09:51:30;;;;;;;;;;;;;;;38.90;25.50;97453.17;1730827;82;20144;-77
2021/08/16 09:53:56;;;;;;;;;;;;;;;38.43;26.67;97450.31;1710382;83;20149;-78
2021/08/16 09:56:22;;;;;;;;;;;;;;;38.04;27.41;97452.38;1730822;83;21101;-78
2021/08/16 09:58:47;;;;;;;;;;;;;;;38.15;26.25;97455.31;1730901;82;20170;-78
2021/08/16 10:01:13;;;;;;;;;;;;;;;38.29;26.16;97444.75;1730853;83;20265;-82
2021/08/16 10:03:39;;;;;;;;;;;;;;;38.65;26.17;97444.52;1730907;83;20176;-81
2021/08/16 10:06:05;;;;;;;;;;;;;;;38.60;25.00;97444.39;1730846;82;20194;-82
2021/08/16 10:08:34;;;;;;;;;;;;;;;38.61;25.41;97442.48;1730977;83;21874;-82
2021/08/16 10:11:00;;;;;;;;;;;;;;;39.57;25.74;97444.42;1730417;82;20447;-78
2021/08/16 10:13:26;;;;;;;;;;;;;;;39.76;23.57;97429.58;1730940;82;20205;-82
2021/08/16 10:15:59;;;;;;;;;;;;;;;39.76;24.65;97438.08;1730886;82;20829;-79
2021/08/16 10:18:28;;;;;;;;;;;;;;;40.50;22.23;97440.79;1710284;83;20140;-82
2021/08/16 10:20:53;;;;;;;;;;;;;;;40.28;22.66;97431.95;1730942;82;21104;-78
2021/08/16 10:23:23;;;;;;;;;;;;;;;39.72;22.67;97428.98;1730734;82;20191;-82
2021/08/16 10:25:51;;;;;;;;;;;;;;;38.41;22.86;97425.97;1731117;82;20140;-78
2021/08/16 10:28:30;;;;;;;;;;;;;;;36.85;25.60;97415.05;1731009;82;20408;-82
2021/08/16 10:30:57;;;;;;;;;;;;;;;35.90;27.02;97416.36;1730986;82;20152;-78
2021/08/16 10:33:23;;;;;;;;;;;;;;;34.96;28.88;97414.81;1731014;82;21050;-78
2021/08/16 10:35:49;;;;;;;;;;;;;;;34.43;29.83;97410.38;1730765;83;20257;-78
2021/08/16 10:38:15;;;;;;;;;;;;;;;33.94;31.51;97409.99;1731137;82;20189;-82
2021/08/16 10:40:48;;;;;;;;;;;;;;;33.66;31.66;97404.60;1730889;83;20159;-81
2021/08/16 10:43:14;;;;;;;;;;;;;;;33.38;31.53;97407.05;1726047;83;20403;-81
2021/08/16 10:45:51;;;;;;;;;;;;;;;33.11;32.15;97407.41;1731022;82;21152;-82
2021/08/16 10:48:29;;;;;;;;;;;;;;;32.52;32.89;97405.78;1730936;83;20076;-78
2021/08/16 10:51:07;;;;;;;;;;;;;;;32.23;33.19;97403.52;1730959;82;20140;-78
2021/08/16 10:53:48;;;;;;;;;;;;;;;32.15;33.59;97406.31;1730990;83;20124;-81
2021/08/16 10:56:18;;;;;;;;;;;;;;;32.11;33.31;97409.19;1730041;83;20132;-81
2021/08/16 10:58:44;;;;;;;;;;;;;;;32.00;33.77;97402.45;1730816;83;20595;-77
2021/08/16 11:01:27;;;;;;;;;;;;;;;31.81;34.52;97401.13;1730824;82;20216;-77
2021/08/16 11:03:57;;;;;;;;;;;;;;;31.99;33.30;97407.88;1730834;83;20423;-81
2021/08/16 11:06:23;;;;;;;;;;;;;;;31.89;33.47;97408.93;1730831;82;20451;-77
2021/08/16 11:08:55;;;;;;;;;;;;;;;32.04;32.83;97407.95;1730912;83;20170;-78
2021/08/16 11:11:21;;;;;;;;;;;;;;;32.02;32.91;97411.03;1730276;82;21352;-81
2021/08/16 11:13:47;;;;;;;;;;;;;;;31.83;32.96;97409.27;1730860;82;20154;-81
2021/08/16 11:16:12;;;;;;;;;;;;;;;31.87;33.37;97406.38;1730957;82;20194;-77
2021/08/16 11:18:38;;;;;;;;;;;;;;;31.87;32.75;97409.17;1730851;83;20178;-78
2021/08/16 11:21:07;;;;;;;;;;;;;;;31.73;33.06;97399.08;1730970;83;20155;-77
2021/08/16 11:23:32;;;;;;;;;;;;;;;31.63;33.89;97388.91;1741001;82;20883;-77
2021/08/16 11:25:58;;;;;;;;;;;;;;;31.69;32.95;97390.73;1738983;82;20170;-77
2021/08/16 11:28:25;;;;;;;;;;;;;;;31.62;33.41;97383.92;1739071;82;20253;-81
2021/08/16 11:30:54;;;;;;;;;;;;;;;31.62;33.15;97380.31;1738994;82;20128;-81
2021/08/16 11:33:24;;;;;;;;;;;;;;;31.58;33.10;97381.02;1738318;82;20160;-77
2021/08/16 11:36:06;;;;;;;;;;;;;;;31.49;33.33;97390.01;1739083;82;21131;-81
2021/08/16 11:38:32;;;;;;;;;;;;;;;31.50;32.91;97383.80;1738939;81;20163;-81
2021/08/16 11:41:13;;;;;;;;;;;;;;;31.39;32.79;97377.05;1739121;81;20161;-81
2021/08/16 11:43:38;;;;;;;;;;;;;;;31.28;32.60;97378.69;1718162;82;20179;-81
2021/08/16 11:46:14;;;;;;;;;;;;;;;31.03;33.29;97375.59;1739007;81;20233;-77
2021/08/16 11:48:45;;;;;;;;;;;;;;;31.04;33.97;97372.97;1739009;82;21679;-77
2021/08/16 11:51:11;;;;;;;;;;;;;;;31.10;33.77;97372.63;1737408;81;20183;-81
2021/08/16 11:53:43;;;;;;;;;;;;;;;31.17;34.14;97366.88;1739125;81;20158;-81
2021/08/16 11:56:09;;;;;;;;;;;;;;;31.25;34.83;97370.35;1738945;81;20140;-77
2021/08/16 11:58:38;;;;;;;;;;;;;;;31.19;35.24;97368.62;1738939;81;20384;-77
2021/08/16 12:01:05;;;;;;;;;;;;;;;31.26;34.70;97368.52;1738251;81;21215;-77
2021/08/16 12:03:32;;;;;;;;;;;;;;;31.31;33.79;97368.02;1738812;82;20162;-77
2021/08/16 12:05:58;;;;;;;;;;;;;;;31.26;33.71;97362.13;1739046;81;20423;-81
2021/08/16 12:08:23;;;;;;;;;;;;;;;31.28;34.13;97363.30;1739058;81;20198;-81
2021/08/16 12:10:49;;;;;;;;;;;;;;;31.35;34.14;97353.31;1739101;82;20150;-77
2021/08/16 12:13:15;;;;;;;;;;;;;;;31.34;33.81;97359.35;1739120;81;21009;-81
2021/08/16 12:15:44;;;;;;;;;;;;;;;31.28;33.80;97357.70;1718182;82;20222;-78
2021/08/16 12:18:10;;;;;;;;;;;;;;;31.28;33.74;97361.11;1739045;81;20164;-83
2021/08/16 12:20:45;;;;;;;;;;;;;;;31.35;34.10;97363.73;1739088;82;20248;-78
2021/08/16 12:23:10;;;;;;;;;;;;;;;31.42;33.17;97360.77;1741844;82;20129;-78
2021/08/16 12:25:46;;;;;;;;;;;;;;;31.48;34.10;97365.26;1744464;82;21189;-82
2021/08/16 12:28:12;;;;;;;;;;;;;;;31.55;33.91;97361.69;1742142;82;20442;-78
2021/08/16 12:30:38;;;;;;;;;;;;;;;31.70;33.60;97362.94;1739194;82;20153;-82
2021/08/16 12:33:08;;;;;;;;;;;;;;;31.66;33.57;97353.82;1738978;82;20166;-82
2021/08/16 12:35:34;;;;;;;;;;;;;;;31.60;32.69;97355.55;1739166;81;20159;-82
2021/08/16 12:38:00;;;;;;;;;;;;;;;31.66;33.35;97356.63;1738993;82;21158;-78
2021/08/16 12:40:26;;;;;;;;;;;;;;;31.88;33.25;97354.76;1738921;82;20418;-78
2021/08/16 12:43:01;;;;;;;;;;;;;;;32.18;33.63;97359.98;1739164;81;20182;-82
2021/08/16 12:45:27;;;;;;;;;;;;;;;32.61;32.70;97361.69;1738738;81;20750;-82